Maryland METAR Reports


Distance/Direction noted is from Ellicott City, MD as the crow flies

KCBE - Cumberland - 118 miles WNW
Updated: Tue, 07/22/2014 5:33 PM
Partly Cloudy
Partly Cloudy
 Wind from SE
Wind: SE 3 mph
Temperature: 91°F
Heat Index: 94°F
Dew Point: 66°F
Humidity: 44%
Barometer: 30.10 inHg
Clouds: Partly Cloudy
Visibility: 10 miles
Cloud Details: Partly Cloudy 5000 ft
2014/07/22 21:33 KCBE 222133Z AUTO 14003KT 10SM SCT050 33/19 A3010 RMK AO1
KHGR - Hagerstown - 57 miles NW
Updated: Tue, 07/22/2014 4:53 PM
Few Clouds
Few Clouds
 Wind from SSE
Wind: SSE 9 mph
Temperature: 84°F
Heat Index: 86°F
Dew Point: 66°F
Humidity: 55%
Barometer: 30.09 inHg
Clouds: Few Clouds
Visibility: 10 miles
Cloud Details: Few Clouds 3700 ft
2014/07/22 20:53 KHGR 222053Z 15008KT 10SM FEW037 29/19 A3009 RMK AO2 SLP191 T02940194 58017
 
KFDK - Frederick - 34 miles NW
Updated: Tue, 07/22/2014 4:50 PM
Partly Cloudy
Partly Cloudy
 Wind from S
Wind: S 5 mph
Temperature: 88°F
Heat Index: 96°F
Dew Point: 73°F
Humidity: 62%
Barometer: 30.11 inHg
Clouds: Partly Cloudy
Visibility: 10 miles
Cloud Details: Partly Cloudy 6000 ft
2014/07/22 20:50 KFDK 222050Z 17004KT 10SM SCT060 31/23 A3011
KGAI - Gaithersburg - 26 miles SW
Updated: Tue, 07/22/2014 5:35 PM
Few Clouds
Few Clouds
 Wind from S
Wind: S 8 mph
Temperature: 84°F
Heat Index: 88°F
Dew Point: 70°F
Humidity: 62%
Barometer: 30.13 inHg
Clouds: Few Clouds
Visibility: 10 miles
Cloud Details: Few Clouds 4900 ft
2014/07/22 21:35 KGAI 222135Z AUTO 18007KT 10SM FEW049 29/21 A3013 RMK AO1
 
KBWI - BWI Airport - 15 miles SE
Updated: Tue, 07/22/2014 4:54 PM
Mostly Cloudy
Mostly Cloudy
 Wind from S
Wind: S 7 mph
Temperature: 84°F
Heat Index: 86°F
Dew Point: 66°F
Humidity: 55%
Barometer: 30.10 inHg
Clouds: Mostly Cloudy
Visibility: 10 miles
Cloud Details: Few Clouds 3500 ft
Partly Cloudy 6000 ft
Mostly Cloudy 25000 ft
2014/07/22 20:54 KBWI 222054Z 18006KT 10SM FEW035 SCT060 BKN250 29/19 A3010 RMK AO2 SLP192 T02890189 57014
KNAK - Annapolis - 32 miles SSE
Updated: Tue, 07/22/2014 4:54 PM
Clear
Clear
 Wind from SSE
Wind: SSE 13 mph
Temperature: 82°F
Heat Index: 84°F
Dew Point: 64°F
Humidity: 55%
Barometer: 30.11 inHg
Clouds: Clear
Visibility: 10 miles
2014/07/22 20:54 KNAK 222054Z AUTO 16011KT 10SM CLR 28/18 A3011 RMK AO2 SLP198 T02830183 56015
 
KESN - Easton - 63 miles SE
Updated: Tue, 07/22/2014 4:45 PM
Mostly Cloudy
Mostly Cloudy
 Wind from SSW
Wind: SSW 5 mph
Temperature: 88°F
Heat Index: 92°F
Dew Point: 68°F
Humidity: 52%
Barometer: 30.15 inHg
Clouds: Mostly Cloudy
Visibility: 10 miles
Cloud Details: Partly Cloudy 4000 ft
Mostly Cloudy 6000 ft
2014/07/22 20:45 KESN 222045Z 20004KT 10SM SCT040 BKN060 31/20 A3015
KSBY - Salisbury - 112 miles SE
Updated: Tue, 07/15/2014 5:28 PM
NOT Current
Heavy rain, Mostly cloudy
Heavy rain, Mostly cloudy
 Wind from SSW
Wind: SSW 14 mph, Gust: 37 mph
Temperature: 81°F
Heat Index: 86°F
Dew Point: 73°F
Humidity: 79%
Barometer: 29.78 inHg
Summary: Heavy Rain
Clouds: Mostly Cloudy
Visibility: 1/2 mile
Cloud Details: Few Clouds 600 ft
Partly Cloudy 1600 ft
Mostly Cloudy 2800 ft
2014/07/15 21:28 KSBY 152128Z AUTO 20012G32KT 1/2SM +RA FEW006 SCT016 BKN028 27/23 A2978 RMK AO2 PK WND 21032/2123 RAB26 P0028 TSNO